createdAt,value
2017-08-01T00:00:13.166Z,70.4
2017-08-01T00:01:14.577Z,69.8
2017-08-01T00:02:16.006Z,69.6
2017-08-01T00:03:17.485Z,69.6
2017-08-01T00:04:18.980Z,69.4
2017-08-01T00:05:20.512Z,69.5
2017-08-01T00:06:21.925Z,69.8
2017-08-01T00:07:23.376Z,69.5
2017-08-01T00:08:24.865Z,69.4
2017-08-01T00:09:26.378Z,69.7
2017-08-01T00:10:27.915Z,69.1
2017-08-01T00:11:29.415Z,69.5
2017-08-01T00:12:30.897Z,69.2
2017-08-01T00:13:32.427Z,69.6
2017-08-01T00:14:33.868Z,69.1
2017-08-01T00:15:35.336Z,69.3
2017-08-01T00:16:36.839Z,69.1
2017-08-01T00:17:38.395Z,69.3
2017-08-01T00:18:39.870Z,68.7
2017-08-01T00:19:41.360Z,69.1
2017-08-01T00:20:42.856Z,69.2
2017-08-01T00:21:44.339Z,69.1
2017-08-01T00:22:45.868Z,69.1
2017-08-01T00:23:47.377Z,69.0
2017-08-01T00:24:48.877Z,69.0
2017-08-01T00:25:50.385Z,69.8
2017-08-01T00:26:51.831Z,69.4
2017-08-01T00:27:53.394Z,69.3
2017-08-01T00:28:54.867Z,69.6
2017-08-01T00:29:56.408Z,69.2
2017-08-01T00:30:57.867Z,69.0
2017-08-01T00:31:59.329Z,69.1
2017-08-01T00:33:00.855Z,69.1
2017-08-01T00:34:02.349Z,69.3
2017-08-01T00:35:03.852Z,69.1
2017-08-01T00:36:05.392Z,69.1
2017-08-01T00:37:06.903Z,69.1
2017-08-01T00:38:08.419Z,69.4
2017-08-01T00:39:09.915Z,69.1
2017-08-01T00:40:11.457Z,69.5
2017-08-01T00:41:13.022Z,69.7
2017-08-01T00:42:14.461Z,69.3
2017-08-01T00:43:15.949Z,69.3
2017-08-01T00:44:17.448Z,69.0
2017-08-01T00:45:18.929Z,69.0
2017-08-01T00:46:20.399Z,69.3
2017-08-01T00:47:21.876Z,69.6
2017-08-01T00:48:23.365Z,70.1
2017-08-01T00:49:24.874Z,70.1
2017-08-01T00:50:26.364Z,70.4
2017-08-01T00:51:27.908Z,70.1
2017-08-01T00:52:29.424Z,70.3
2017-08-01T00:53:30.897Z,69.9
2017-08-01T00:54:32.503Z,70.1
2017-08-01T00:55:33.994Z,69.8
2017-08-01T00:56:35.418Z,70.0
2017-08-01T00:57:36.917Z,70.1
2017-08-01T00:58:38.387Z,70.1
2017-08-01T00:59:39.885Z,70.1
2017-08-01T01:00:41.414Z,70.0
2017-08-01T01:01:42.962Z,70.2
2017-08-01T01:02:44.420Z,70.4
2017-08-01T01:03:45.943Z,69.9
2017-08-01T01:04:47.374Z,70.3
2017-08-01T01:05:48.871Z,70.4
2017-08-01T01:06:50.387Z,69.9
2017-08-01T01:07:51.900Z,70.1
2017-08-01T01:08:53.414Z,69.9
2017-08-01T01:09:54.962Z,70.1
2017-08-01T01:10:56.433Z,70.0
2017-08-01T01:11:57.895Z,70.1
2017-08-01T01:12:59.347Z,70.1
2017-08-01T01:14:00.891Z,70.1
2017-08-01T01:15:02.381Z,69.4
2017-08-01T01:16:03.889Z,69.6
2017-08-01T01:17:05.401Z,69.5
2017-08-01T01:18:06.906Z,69.6
2017-08-01T01:19:08.441Z,70.1
2017-08-01T01:20:09.952Z,70.0
2017-08-01T01:21:11.398Z,70.0
2017-08-01T01:22:12.892Z,70.0
2017-08-01T01:23:14.486Z,71.5
2017-08-01T01:24:15.960Z,71.1
2017-08-01T01:25:17.486Z,70.9
2017-08-01T01:26:19.038Z,70.9
2017-08-01T01:27:20.543Z,71.1
2017-08-01T01:28:22.047Z,71.1
2017-08-01T01:29:23.506Z,70.8
2017-08-01T01:30:25.021Z,70.6
2017-08-01T01:31:26.526Z,72.0
2017-08-01T01:32:28.041Z,72.1
2017-08-01T01:33:29.558Z,71.6
2017-08-01T01:34:32.890Z,72.0
2017-08-01T01:35:34.419Z,72.4
2017-08-01T01:36:35.982Z,73.1
2017-08-01T01:37:37.479Z,72.4
2017-08-01T01:38:38.947Z,72.7
2017-08-01T01:39:40.432Z,73.4
2017-08-01T01:40:41.973Z,73.4
2017-08-01T01:41:43.474Z,73.1
2017-08-01T01:42:44.933Z,73.8
2017-08-01T01:43:46.344Z,73.7
2017-08-01T01:44:47.779Z,74.0
2017-08-01T01:45:49.252Z,73.7
2017-08-01T01:46:50.759Z,74.5
2017-08-01T01:47:52.292Z,73.6
2017-08-01T01:48:53.775Z,73.7
2017-08-01T01:49:55.220Z,73.4
2017-08-01T01:50:56.729Z,73.8
2017-08-01T01:51:58.274Z,73.5
2017-08-01T01:52:59.772Z,74.1
2017-08-01T01:54:01.297Z,74.2
2017-08-01T01:55:02.798Z,73.4
2017-08-01T01:56:04.284Z,74.1
2017-08-01T01:57:05.786Z,74.7
2017-08-01T01:58:07.250Z,74.9
2017-08-01T01:59:08.718Z,75.6
2017-08-01T02:00:10.238Z,75.1
2017-08-01T02:01:11.755Z,75.5
2017-08-01T02:02:13.217Z,74.7
2017-08-01T02:03:14.687Z,76.4
2017-08-01T02:04:16.232Z,76.6
2017-08-01T02:05:17.662Z,76.2
2017-08-01T02:06:19.168Z,76.7
2017-08-01T02:07:20.694Z,77.0
2017-08-01T02:08:22.225Z,76.8
2017-08-01T02:09:23.737Z,76.9
2017-08-01T02:10:25.243Z,77.5
2017-08-01T02:11:26.704Z,76.5
2017-08-01T02:12:28.186Z,77.2
2017-08-01T02:13:29.749Z,77.5
2017-08-01T02:14:31.211Z,77.8
2017-08-01T02:15:32.708Z,78.7
2017-08-01T02:16:34.188Z,78.9
2017-08-01T02:17:35.691Z,77.3
2017-08-01T02:18:37.203Z,77.5
2017-08-01T02:19:38.729Z,78.2
2017-08-01T02:20:40.218Z,77.4
2017-08-01T02:21:41.667Z,78.0
2017-08-01T02:22:43.185Z,77.4
2017-08-01T02:23:44.681Z,77.9
2017-08-01T02:24:46.171Z,78.1
2017-08-01T02:25:47.696Z,77.5
2017-08-01T02:26:49.188Z,78.1
2017-08-01T02:27:50.689Z,78.7
2017-08-01T02:28:52.178Z,77.9
2017-08-01T02:29:53.689Z,77.5
2017-08-01T02:30:55.197Z,77.5
2017-08-01T02:31:56.646Z,77.0
2017-08-01T02:32:58.177Z,77.5
2017-08-01T02:33:59.682Z,77.4
2017-08-01T02:35:01.158Z,78.3
2017-08-01T02:36:02.658Z,78.8
2017-08-01T02:37:04.106Z,78.2
2017-08-01T02:38:05.567Z,77.9
2017-08-01T02:39:07.047Z,78.3
2017-08-01T02:40:08.503Z,77.9
2017-08-01T02:41:09.987Z,78.6
2017-08-01T02:42:11.514Z,78.8
2017-08-01T02:43:13.013Z,78.7
2017-08-01T02:44:14.487Z,78.4
2017-08-01T02:45:16.015Z,78.7
2017-08-01T02:46:17.524Z,79.1
2017-08-01T02:47:19.008Z,78.6
2017-08-01T02:48:20.482Z,78.8
2017-08-01T02:49:21.909Z,79.5
2017-08-01T02:50:23.364Z,79.3
2017-08-01T02:51:24.806Z,79.8
2017-08-01T02:52:26.224Z,80.2
2017-08-01T02:53:27.669Z,80.5
2017-08-01T02:54:29.097Z,80.4
2017-08-01T02:55:30.540Z,80.2
2017-08-01T02:56:31.963Z,80.2
2017-08-01T02:57:33.362Z,80.2
2017-08-01T02:58:34.770Z,80.4
2017-08-01T02:59:36.189Z,80.1
2017-08-01T03:00:37.602Z,80.2
2017-08-01T03:01:39.011Z,79.9
2017-08-01T03:02:40.426Z,79.3
2017-08-01T03:03:41.831Z,79.4
2017-08-01T03:04:43.249Z,80.3
2017-08-01T03:05:44.654Z,79.7
2017-08-01T03:06:46.077Z,81.2
2017-08-01T03:07:47.492Z,80.4
2017-08-01T03:08:48.903Z,80.5
2017-08-01T03:09:50.311Z,80.9
2017-08-01T03:10:51.725Z,80.5
2017-08-01T03:11:53.138Z,81.2
2017-08-01T03:12:54.550Z,81.9
2017-08-01T03:13:55.962Z,82.4
2017-08-01T03:14:57.374Z,82.5
2017-08-01T03:15:58.806Z,82.9
2017-08-01T03:17:00.218Z,82.6
2017-08-01T03:18:01.630Z,82.2
2017-08-01T03:19:03.042Z,81.7
2017-08-01T03:20:04.454Z,81.0
2017-08-01T03:21:05.860Z,80.0
2017-08-01T03:22:07.279Z,78.3
2017-08-01T03:23:08.686Z,77.2
2017-08-01T03:24:10.118Z,77.9
2017-08-01T03:25:11.527Z,77.2
2017-08-01T03:26:12.955Z,76.5
2017-08-01T03:27:14.385Z,75.8
2017-08-01T03:28:15.790Z,75.8
2017-08-01T03:29:17.203Z,75.9
2017-08-01T03:30:18.603Z,76.6
2017-08-01T03:31:20.014Z,77.0
2017-08-01T03:32:21.416Z,77.0
2017-08-01T03:33:22.834Z,77.3
2017-08-01T03:34:24.240Z,77.0
2017-08-01T03:35:25.656Z,77.0
2017-08-01T03:36:27.069Z,77.5
2017-08-01T03:37:28.471Z,77.4
2017-08-01T03:38:29.884Z,76.9
2017-08-01T03:39:31.291Z,76.2
2017-08-01T03:40:32.703Z,76.2
2017-08-01T03:41:34.112Z,77.0
2017-08-01T03:42:35.524Z,77.1
2017-08-01T03:43:36.936Z,76.7
2017-08-01T03:44:38.343Z,77.4
2017-08-01T03:45:39.763Z,78.7
2017-08-01T03:46:41.161Z,79.3
2017-08-01T03:47:42.572Z,80.7
2017-08-01T03:48:43.984Z,82.0
2017-08-01T03:49:45.396Z,82.7
2017-08-01T03:50:46.810Z,85.0
2017-08-01T03:51:48.217Z,86.2
2017-08-01T03:52:49.623Z,87.0
2017-08-01T03:53:51.032Z,87.4
2017-08-01T03:54:52.440Z,87.7
2017-08-01T03:55:54.658Z,87.2
2017-08-01T03:56:56.067Z,87.4
2017-08-01T03:57:57.478Z,87.0
2017-08-01T03:58:58.888Z,87.5
2017-08-01T04:00:00.298Z,88.2
2017-08-01T04:01:01.710Z,88.2
2017-08-01T04:02:03.115Z,88.3
2017-08-01T04:03:04.530Z,87.6
2017-08-01T04:04:05.939Z,86.8
2017-08-01T04:05:07.353Z,86.7
2017-08-01T04:06:08.758Z,87.0
2017-08-01T04:07:10.170Z,88.1
2017-08-01T04:08:11.580Z,87.6
2017-08-01T04:09:12.988Z,87.4
2017-08-01T04:10:14.397Z,88.3
2017-08-01T04:11:15.808Z,87.2
2017-08-01T04:12:17.218Z,87.1
2017-08-01T04:13:18.628Z,87.2
2017-08-01T04:14:20.036Z,87.5
2017-08-01T04:15:21.448Z,88.3
2017-08-01T04:16:22.862Z,88.3
2017-08-01T04:17:24.274Z,87.2
2017-08-01T04:18:25.689Z,87.4
2017-08-01T04:19:27.108Z,87.2
2017-08-01T04:20:28.518Z,87.7
2017-08-01T04:21:29.930Z,87.8
2017-08-01T04:22:31.345Z,88.0
2017-08-01T04:23:32.845Z,88.3
2017-08-01T04:24:34.255Z,87.5
2017-08-01T04:25:35.674Z,87.3
2017-08-01T04:26:37.086Z,88.3
2017-08-01T04:27:38.501Z,88.1
2017-08-01T04:28:39.910Z,88.4
2017-08-01T04:29:41.398Z,88.1
2017-08-01T04:30:42.812Z,88.4
2017-08-01T04:31:44.223Z,88.4
2017-08-01T04:32:45.636Z,88.4
2017-08-01T04:33:47.054Z,88.3
2017-08-01T04:34:48.461Z,88.0
2017-08-01T04:35:49.872Z,88.0
2017-08-01T04:36:51.291Z,88.3
2017-08-01T04:37:52.702Z,88.0
2017-08-01T04:38:54.117Z,88.0
2017-08-01T04:39:55.531Z,88.7
2017-08-01T04:40:56.943Z,88.2
2017-08-01T04:41:58.361Z,88.3
2017-08-01T04:42:59.772Z,88.3
2017-08-01T04:44:01.185Z,88.4
2017-08-01T04:45:02.596Z,89.0
2017-08-01T04:46:04.012Z,88.9
2017-08-01T04:47:05.420Z,88.5
2017-08-01T04:48:06.836Z,88.2
2017-08-01T04:49:08.249Z,89.3
2017-08-01T04:50:09.664Z,88.6
2017-08-01T04:51:11.076Z,88.2
2017-08-01T04:52:12.483Z,88.3
2017-08-01T04:53:13.950Z,88.3
2017-08-01T04:54:15.365Z,88.0
2017-08-01T04:55:16.775Z,87.6
2017-08-01T04:56:18.186Z,87.6
2017-08-01T04:57:19.597Z,87.0
2017-08-01T04:58:21.012Z,87.0
2017-08-01T04:59:22.427Z,87.3
2017-08-01T05:00:23.846Z,87.4
2017-08-01T05:01:25.257Z,87.3
2017-08-01T05:02:26.670Z,87.3
2017-08-01T05:03:28.081Z,87.5
2017-08-01T05:04:29.489Z,87.3
2017-08-01T05:05:30.906Z,87.0
2017-08-01T05:06:32.316Z,87.3
2017-08-01T05:07:33.731Z,87.6
2017-08-01T05:08:35.146Z,86.2
2017-08-01T05:09:36.565Z,85.5
2017-08-01T05:10:37.977Z,85.8
2017-08-01T05:11:39.386Z,86.5
2017-08-01T05:12:40.805Z,86.3
2017-08-01T05:13:42.225Z,86.3
2017-08-01T05:14:43.638Z,86.2
2017-08-01T05:15:45.057Z,86.0
2017-08-01T05:16:46.482Z,85.7
2017-08-01T05:17:47.895Z,86.7
2017-08-01T05:18:49.316Z,86.4
2017-08-01T05:19:50.726Z,87.0
2017-08-01T05:20:52.133Z,87.2
2017-08-01T05:21:53.547Z,86.0
2017-08-01T05:22:54.957Z,87.4
2017-08-01T05:23:56.371Z,87.2
2017-08-01T05:24:57.797Z,87.5
2017-08-01T05:25:59.210Z,87.4
2017-08-01T05:27:00.625Z,86.3
2017-08-01T05:28:02.040Z,86.1
2017-08-01T05:29:03.513Z,86.4
2017-08-01T05:30:04.927Z,86.5
2017-08-01T05:31:06.370Z,85.7
2017-08-01T05:32:07.785Z,86.0
2017-08-01T05:33:09.199Z,86.0
2017-08-01T05:34:10.615Z,86.1
2017-08-01T05:35:12.030Z,86.5
2017-08-01T05:36:13.447Z,86.7
2017-08-01T05:37:14.860Z,86.5
2017-08-01T05:38:16.275Z,87.2
2017-08-01T05:39:17.692Z,87.0
2017-08-01T05:40:19.099Z,87.3
2017-08-01T05:41:20.517Z,87.3
2017-08-01T05:42:21.932Z,87.4
2017-08-01T05:43:23.347Z,87.9
2017-08-01T05:44:24.768Z,88.5
2017-08-01T05:45:26.181Z,88.2
2017-08-01T05:46:27.607Z,88.5
2017-08-01T05:47:29.015Z,88.1
2017-08-01T05:48:30.440Z,88.1
2017-08-01T05:49:31.858Z,87.3
2017-08-01T05:50:33.270Z,86.7
2017-08-01T05:51:34.688Z,86.6
2017-08-01T05:52:36.102Z,86.3
2017-08-01T05:53:37.515Z,86.5
2017-08-01T05:54:38.930Z,85.8
2017-08-01T05:55:40.345Z,86.5
2017-08-01T05:56:41.757Z,86.6
2017-08-01T05:57:43.174Z,86.5
2017-08-01T05:58:44.597Z,86.0
2017-08-01T05:59:46.010Z,85.8
2017-08-01T06:00:47.425Z,85.7
2017-08-01T06:01:48.840Z,85.5
2017-08-01T06:02:50.310Z,85.7
2017-08-01T06:03:51.725Z,85.2
2017-08-01T06:04:53.136Z,85.6
2017-08-01T06:05:54.558Z,85.9
2017-08-01T06:06:55.969Z,85.4
2017-08-01T06:07:57.382Z,84.0
2017-08-01T06:08:58.794Z,85.2
2017-08-01T06:10:00.209Z,85.2
2017-08-01T06:11:01.622Z,84.3
2017-08-01T06:12:03.037Z,84.0
2017-08-01T06:13:04.454Z,84.7
2017-08-01T06:14:05.882Z,83.8
2017-08-01T06:15:07.290Z,84.5
2017-08-01T06:16:08.705Z,84.0
2017-08-01T06:17:10.120Z,85.0
2017-08-01T06:18:11.537Z,84.5
2017-08-01T06:19:12.952Z,83.7
2017-08-01T06:20:14.376Z,83.3
2017-08-01T06:21:15.792Z,82.6
2017-08-01T06:22:17.208Z,82.5
2017-08-01T06:23:18.650Z,82.8
2017-08-01T06:24:20.067Z,81.8
2017-08-01T06:25:21.483Z,82.2
2017-08-01T06:26:22.909Z,80.7
2017-08-01T06:27:24.320Z,80.1
2017-08-01T06:28:25.762Z,79.9
2017-08-01T06:29:27.194Z,79.0
2017-08-01T06:30:28.618Z,79.6
2017-08-01T06:31:30.029Z,79.7
2017-08-01T06:32:31.452Z,80.2
2017-08-01T06:33:32.860Z,79.8
2017-08-01T06:34:34.301Z,79.5
2017-08-01T06:35:35.722Z,80.3
2017-08-01T06:36:37.131Z,80.5
2017-08-01T06:37:38.547Z,80.6
2017-08-01T06:38:39.968Z,80.3
2017-08-01T06:39:41.383Z,80.1
2017-08-01T06:40:42.794Z,79.8
2017-08-01T06:41:44.222Z,78.3
2017-08-01T06:42:45.661Z,77.9
2017-08-01T06:43:47.246Z,77.8
2017-08-01T06:44:49.817Z,77.6
2017-08-01T06:45:52.593Z,76.9
2017-08-01T06:46:54.404Z,77.4
2017-08-01T06:47:55.822Z,77.3
2017-08-01T06:48:57.242Z,77.2
2017-08-01T06:49:58.668Z,75.6
2017-08-01T06:51:00.083Z,75.7
2017-08-01T06:52:01.502Z,76.1
2017-08-01T06:53:02.910Z,76.0
2017-08-01T06:54:04.327Z,75.3
2017-08-01T06:55:05.744Z,75.2
2017-08-01T06:56:07.165Z,75.3
2017-08-01T06:57:08.584Z,74.8
2017-08-01T06:58:10.019Z,74.0
2017-08-01T06:59:11.436Z,72.6
2017-08-01T07:00:12.854Z,73.2
2017-08-01T07:01:14.273Z,74.0
2017-08-01T07:02:15.686Z,73.0
2017-08-01T07:03:17.104Z,74.1
2017-08-01T07:04:18.527Z,73.2
2017-08-01T07:05:19.949Z,73.3
2017-08-01T07:06:21.364Z,73.7
2017-08-01T07:07:22.801Z,75.0
2017-08-01T07:08:24.343Z,73.6
2017-08-01T07:09:25.757Z,70.6
2017-08-01T07:10:27.176Z,70.4
2017-08-01T07:11:28.591Z,70.0
2017-08-01T07:12:30.004Z,70.0
2017-08-01T07:13:31.425Z,69.4
2017-08-01T07:14:32.845Z,70.9
2017-08-01T07:15:34.260Z,69.2
2017-08-01T07:16:35.677Z,70.0
2017-08-01T07:17:37.099Z,69.5
2017-08-01T07:18:38.526Z,69.7
2017-08-01T07:19:39.965Z,67.8
2017-08-01T07:20:41.356Z,66.6
2017-08-01T07:21:42.777Z,66.3
2017-08-01T07:22:44.229Z,66.5
2017-08-01T07:23:45.640Z,66.6
2017-08-01T07:24:47.077Z,66.0
2017-08-01T07:25:48.494Z,64.8
2017-08-01T07:26:49.939Z,64.9
2017-08-01T07:27:51.357Z,65.7
2017-08-01T07:28:52.774Z,66.2
2017-08-01T07:29:54.204Z,65.0
2017-08-01T07:30:55.636Z,63.9
2017-08-01T07:31:57.055Z,63.2
2017-08-01T07:32:58.482Z,63.0
2017-08-01T07:33:59.902Z,63.3
2017-08-01T07:35:01.315Z,63.9
2017-08-01T07:36:02.738Z,64.1
2017-08-01T07:37:04.162Z,64.9
2017-08-01T07:38:05.586Z,64.8
2017-08-01T07:39:07.007Z,64.0
2017-08-01T07:40:08.422Z,63.0
2017-08-01T07:41:09.844Z,63.7
2017-08-01T07:42:11.275Z,65.7
2017-08-01T07:43:12.690Z,65.7
2017-08-01T07:44:14.118Z,65.4
2017-08-01T07:45:15.549Z,65.3
2017-08-01T07:46:16.964Z,65.4
2017-08-01T07:47:18.407Z,63.9
2017-08-01T07:48:19.823Z,62.5
2017-08-01T07:49:21.242Z,62.5
2017-08-01T07:50:22.654Z,62.6
2017-08-01T07:51:24.092Z,62.3
2017-08-01T07:52:25.533Z,62.5
2017-08-01T07:53:26.952Z,61.9
2017-08-01T07:54:28.371Z,61.6
2017-08-01T07:55:29.787Z,62.9
2017-08-01T07:56:31.209Z,62.8
2017-08-01T07:57:32.634Z,62.6
2017-08-01T07:58:34.048Z,61.9
2017-08-01T07:59:35.466Z,61.9
2017-08-01T08:00:36.899Z,62.1
2017-08-01T08:01:38.320Z,61.0
2017-08-01T08:02:39.745Z,59.4
2017-08-01T08:03:41.177Z,60.7
2017-08-01T08:04:42.599Z,60.3
2017-08-01T08:05:44.016Z,59.7
2017-08-01T08:06:45.434Z,59.9
2017-08-01T08:07:46.857Z,57.6
2017-08-01T08:08:48.283Z,55.5
2017-08-01T08:09:49.700Z,54.6
2017-08-01T08:10:51.141Z,54.9
2017-08-01T08:11:52.559Z,54.8
2017-08-01T08:12:53.986Z,54.8
2017-08-01T08:13:55.398Z,55.6
2017-08-01T08:14:56.830Z,56.0
2017-08-01T08:15:58.254Z,54.0
2017-08-01T08:16:59.674Z,53.4
2017-08-01T08:18:01.091Z,54.6
2017-08-01T08:19:02.514Z,54.7
2017-08-01T08:20:03.934Z,54.4
2017-08-01T08:21:05.357Z,54.1
2017-08-01T08:22:06.778Z,54.2
2017-08-01T08:23:08.197Z,52.8
2017-08-01T08:24:09.619Z,51.9
2017-08-01T08:25:11.046Z,50.9
2017-08-01T08:26:12.467Z,50.6
2017-08-01T08:27:13.903Z,49.7
2017-08-01T08:28:15.332Z,49.1
2017-08-01T08:29:16.755Z,49.8
2017-08-01T08:30:18.179Z,49.8
2017-08-01T08:31:19.603Z,51.7
2017-08-01T08:32:21.023Z,53.2
2017-08-01T08:33:22.443Z,54.5
2017-08-01T08:34:23.866Z,55.5
2017-08-01T08:35:25.284Z,56.2
2017-08-01T08:36:27.201Z,57.9
2017-08-01T08:37:28.629Z,58.6
2017-08-01T08:38:30.052Z,56.7
2017-08-01T08:39:31.722Z,55.5
2017-08-01T08:40:33.146Z,55.0
2017-08-01T08:41:34.564Z,55.0
2017-08-01T08:42:36.013Z,52.9
2017-08-01T08:43:37.432Z,52.9
2017-08-01T08:44:38.857Z,51.5
2017-08-01T08:45:40.365Z,52.2
2017-08-01T08:46:41.790Z,52.2
2017-08-01T08:47:43.217Z,50.8
2017-08-01T08:48:44.631Z,48.9
2017-08-01T08:49:46.048Z,48.4
2017-08-01T08:50:47.498Z,48.5
2017-08-01T08:51:48.928Z,49.0
2017-08-01T08:52:50.361Z,48.7
2017-08-01T08:53:51.768Z,48.6
2017-08-01T08:54:53.192Z,48.2
2017-08-01T08:55:54.653Z,47.9
2017-08-01T08:56:56.112Z,46.8
2017-08-01T08:57:57.538Z,46.9
2017-08-01T08:58:59.026Z,46.6
2017-08-01T09:00:00.452Z,46.1
2017-08-01T09:01:01.875Z,46.0
2017-08-01T09:02:03.289Z,44.3
2017-08-01T09:03:04.718Z,45.5
2017-08-01T09:04:06.150Z,45.0
2017-08-01T09:05:07.560Z,44.7
2017-08-01T09:06:08.996Z,43.1
2017-08-01T09:07:10.407Z,42.1
2017-08-01T09:08:11.836Z,42.6
2017-08-01T09:09:13.265Z,41.7
2017-08-01T09:10:14.682Z,41.8
2017-08-01T09:11:16.117Z,42.5
2017-08-01T09:12:17.533Z,43.7
2017-08-01T09:13:18.954Z,42.2
2017-08-01T09:14:20.379Z,43.2
2017-08-01T09:15:21.800Z,41.8
2017-08-01T09:16:23.227Z,40.7
2017-08-01T09:17:24.647Z,40.9
2017-08-01T09:18:26.073Z,41.0
2017-08-01T09:19:27.495Z,40.8
2017-08-01T09:20:28.937Z,39.5
2017-08-01T09:21:30.362Z,40.0
2017-08-01T09:22:31.785Z,39.8
2017-08-01T09:23:33.206Z,39.5
2017-08-01T09:24:34.631Z,39.3
2017-08-01T09:25:36.054Z,39.0
2017-08-01T09:26:37.486Z,38.9
2017-08-01T09:27:38.929Z,39.5
2017-08-01T09:28:40.349Z,40.9
2017-08-01T09:29:41.773Z,39.8
2017-08-01T09:30:43.202Z,38.6
2017-08-01T09:31:44.639Z,38.7
2017-08-01T09:32:46.083Z,37.7
2017-08-01T09:33:47.506Z,37.8
2017-08-01T09:34:48.935Z,37.0
2017-08-01T09:35:50.405Z,37.1
2017-08-01T09:36:51.888Z,37.5
2017-08-01T09:37:53.295Z,37.4
2017-08-01T09:38:54.730Z,38.7
2017-08-01T09:39:56.167Z,37.8
2017-08-01T09:40:57.592Z,38.4
2017-08-01T09:41:59.025Z,37.7
2017-08-01T09:43:00.595Z,37.4
2017-08-01T09:44:02.074Z,38.5
2017-08-01T09:45:03.481Z,38.5
2017-08-01T09:46:04.908Z,37.0
2017-08-01T09:47:06.440Z,37.1
2017-08-01T09:48:07.876Z,35.8
2017-08-01T09:49:09.328Z,35.7
2017-08-01T09:50:10.752Z,36.7
2017-08-01T09:51:12.185Z,38.1
2017-08-01T09:52:13.650Z,37.5
2017-08-01T09:53:15.139Z,37.3
2017-08-01T09:54:16.567Z,37.8
2017-08-01T09:55:18.019Z,38.0
2017-08-01T09:56:19.617Z,38.4
2017-08-01T09:57:21.130Z,38.2
2017-08-01T09:58:22.666Z,36.4
2017-08-01T09:59:24.132Z,36.3
2017-08-01T10:00:25.635Z,36.6
2017-08-01T10:01:27.227Z,36.1
2017-08-01T10:02:28.669Z,35.2
2017-08-01T10:03:30.279Z,34.8
2017-08-01T10:04:31.809Z,35.0
2017-08-01T10:05:33.354Z,35.2
2017-08-01T10:06:34.847Z,35.4
2017-08-01T10:07:36.446Z,36.0
2017-08-01T10:08:37.954Z,35.4
2017-08-01T10:09:39.468Z,34.8
2017-08-01T10:10:41.020Z,34.4
2017-08-01T10:11:42.607Z,34.8
2017-08-01T10:12:44.145Z,35.4
2017-08-01T10:13:45.667Z,34.4
2017-08-01T10:14:47.191Z,34.1
2017-08-01T10:15:48.676Z,34.1
2017-08-01T10:16:50.136Z,33.5
2017-08-01T10:17:51.566Z,32.9
2017-08-01T10:18:53.019Z,32.9
2017-08-01T10:19:54.468Z,32.9
2017-08-01T10:20:55.898Z,32.5
2017-08-01T10:21:57.332Z,33.0
2017-08-01T10:22:58.762Z,33.6
2017-08-01T10:24:00.188Z,32.9
2017-08-01T10:25:01.615Z,33.1
2017-08-01T10:26:03.040Z,32.0
2017-08-01T11:49:31.959Z,19.9
2017-08-01T11:50:33.384Z,18.7
2017-08-01T11:51:34.812Z,18.8
2017-08-01T11:52:36.247Z,17.8
2017-08-01T11:53:37.679Z,16.4
2017-08-01T11:54:39.114Z,17.0
2017-08-01T11:55:40.544Z,17.5
2017-08-01T11:56:41.979Z,16.8
2017-08-01T11:57:43.407Z,16.4
2017-08-01T11:58:44.838Z,17.8
2017-08-01T11:59:46.265Z,21.1
2017-08-01T12:00:47.702Z,21.7
2017-08-01T12:01:49.135Z,23.0
2017-08-01T12:02:50.566Z,20.3
2017-08-01T12:03:52.043Z,18.8
2017-08-01T12:04:53.493Z,17.6
2017-08-01T12:05:54.918Z,16.7
2017-08-01T12:06:56.349Z,17.2
2017-08-01T12:07:57.780Z,17.1
2017-08-01T12:08:59.215Z,17.7
2017-08-01T12:10:00.644Z,18.0
2017-08-01T12:11:02.079Z,16.9
2017-08-01T12:12:03.531Z,15.5
2017-08-01T12:13:04.968Z,16.7
2017-08-01T12:14:06.391Z,19.0
2017-08-01T12:15:07.827Z,19.4
2017-08-01T12:16:09.267Z,21.2
2017-08-01T12:17:10.710Z,21.4
2017-08-01T12:18:12.150Z,22.5
2017-08-01T12:19:13.585Z,22.5
2017-08-01T12:20:15.025Z,23.7
2017-08-01T12:21:16.462Z,21.7
2017-08-01T12:22:17.894Z,19.9
2017-08-01T12:23:19.320Z,19.5
2017-08-01T12:24:20.752Z,18.8
2017-08-01T12:25:22.190Z,17.9
2017-08-01T12:26:23.629Z,16.3
2017-08-01T12:27:25.273Z,17.1
2017-08-01T12:28:26.974Z,14.8
2017-08-01T12:29:28.413Z,13.1
2017-08-01T12:30:29.868Z,12.4
2017-08-01T12:31:31.322Z,11.8
2017-08-01T12:32:32.748Z,12.1
2017-08-01T12:33:34.602Z,12.5
2017-08-01T12:34:36.259Z,10.9
2017-08-01T12:35:37.689Z,11.1
2017-08-01T12:36:39.124Z,10.5
2017-08-01T12:37:40.598Z,10.8
2017-08-01T12:38:42.061Z,12.3
2017-08-01T12:39:43.560Z,12.1
2017-08-01T12:40:44.967Z,12.6
2017-08-01T12:41:46.416Z,13.8
2017-08-01T12:42:47.845Z,16.1
2017-08-01T12:43:49.279Z,18.5
2017-08-01T12:44:50.772Z,17.5
2017-08-01T12:45:52.327Z,17.5
2017-08-01T12:46:53.760Z,18.4
2017-08-01T12:47:55.192Z,18.9
2017-08-01T12:48:56.909Z,19.5
2017-08-01T12:49:58.303Z,18.0
2017-08-01T12:50:59.743Z,16.0
2017-08-01T12:52:01.178Z,15.4
2017-08-01T12:53:02.679Z,15.2
2017-08-01T12:54:04.117Z,16.3
2017-08-01T12:55:05.545Z,15.6
2017-08-01T12:56:07.009Z,14.7
2017-08-01T12:57:08.444Z,14.6
2017-08-01T12:58:09.903Z,13.6
2017-08-01T12:59:11.331Z,14.4
2017-08-01T13:00:12.765Z,16.1
2017-08-01T13:01:14.309Z,16.4
2017-08-01T13:02:15.738Z,18.0
2017-08-01T13:03:17.175Z,16.3
2017-08-01T13:04:18.622Z,17.5
2017-08-01T13:05:20.062Z,17.7
2017-08-01T13:06:21.496Z,16.3
2017-08-01T13:07:22.932Z,15.6
2017-08-01T13:08:24.429Z,15.1
2017-08-01T13:09:25.842Z,15.8
2017-08-01T13:10:27.274Z,17.2
2017-08-01T13:11:28.703Z,18.5
2017-08-01T13:12:30.136Z,19.1
2017-08-01T13:13:31.566Z,19.5
2017-08-01T13:14:33.000Z,20.3
2017-08-01T13:15:34.429Z,21.4
2017-08-01T13:16:35.864Z,20.6
2017-08-01T13:17:37.342Z,19.3
2017-08-01T13:18:38.970Z,16.9
2017-08-01T13:19:40.397Z,15.2
2017-08-01T13:20:41.832Z,14.1
2017-08-01T13:21:43.269Z,14.0
2017-08-01T13:22:44.697Z,16.2
2017-08-01T13:23:46.154Z,16.7
2017-08-01T13:24:47.640Z,18.9
2017-08-01T13:25:49.117Z,18.2
2017-08-01T13:26:50.553Z,14.7
2017-08-01T13:27:51.983Z,12.9
2017-08-01T13:28:53.439Z,12.1
2017-08-01T13:29:54.869Z,12.0
2017-08-01T13:30:56.302Z,11.7
2017-08-01T13:31:57.730Z,12.2
2017-08-01T13:32:59.168Z,12.6
2017-08-01T13:34:00.601Z,10.9
2017-08-01T13:35:02.057Z,11.8
2017-08-01T13:36:03.490Z,11.0
2017-08-01T13:37:04.921Z,12.7
2017-08-01T13:38:06.351Z,14.1
2017-08-01T13:39:07.779Z,14.6
2017-08-01T13:40:09.211Z,13.1
2017-08-01T13:41:10.648Z,13.2
2017-08-01T13:42:12.187Z,13.3
2017-08-01T13:43:13.686Z,13.2
2017-08-01T13:44:15.115Z,12.4
2017-08-01T13:45:16.541Z,14.1
2017-08-01T13:46:18.004Z,15.8
2017-08-01T13:47:19.437Z,15.2
2017-08-01T13:48:20.864Z,15.9
2017-08-01T13:49:22.314Z,15.0
2017-08-01T13:50:23.747Z,14.2
2017-08-01T13:51:25.184Z,13.9
2017-08-01T13:52:26.621Z,14.3
2017-08-01T13:53:28.048Z,13.4
2017-08-01T13:54:29.481Z,14.2
2017-08-01T13:55:30.917Z,11.8
2017-08-01T13:56:32.364Z,12.8
2017-08-01T13:57:33.792Z,12.8
2017-08-01T13:58:35.229Z,12.7
2017-08-01T13:59:36.670Z,12.9
2017-08-01T14:00:38.099Z,13.4
2017-08-01T14:01:39.533Z,13.3
2017-08-01T14:02:40.960Z,14.6
2017-08-01T14:03:42.392Z,16.1
2017-08-01T14:04:43.826Z,17.4
2017-08-01T14:05:45.393Z,18.0
2017-08-01T14:06:46.837Z,17.5
2017-08-01T14:07:48.269Z,18.9
2017-08-01T14:08:49.691Z,19.6
2017-08-01T14:09:51.122Z,19.4
2017-08-01T14:10:52.574Z,19.2
2017-08-01T14:11:54.004Z,18.9
2017-08-01T14:12:55.449Z,19.2
2017-08-01T14:13:56.888Z,19.8
2017-08-01T14:14:58.314Z,20.2
2017-08-01T14:15:59.743Z,19.8
2017-08-01T14:17:01.244Z,20.3
2017-08-01T14:18:02.684Z,19.9
2017-08-01T14:19:04.123Z,20.0
2017-08-01T14:20:05.558Z,20.2
2017-08-01T14:21:06.981Z,20.1
2017-08-01T14:22:08.418Z,18.0
2017-08-01T14:23:09.850Z,15.4
2017-08-01T14:24:11.290Z,14.4
2017-08-01T14:25:12.711Z,14.0
2017-08-01T14:26:14.140Z,14.1
2017-08-01T14:27:15.573Z,12.3
2017-08-01T14:28:17.001Z,11.7
2017-08-01T14:29:18.455Z,11.1
2017-08-01T14:30:19.890Z,9.8
2017-08-01T14:31:21.312Z,9.9
2017-08-01T14:32:22.744Z,8.9
2017-08-01T14:33:24.192Z,9.5
2017-08-01T14:34:25.610Z,10.0
2017-08-01T14:35:27.056Z,9.8
2017-08-01T14:36:28.536Z,9.3
2017-08-01T14:37:29.964Z,8.4
2017-08-01T14:38:31.404Z,8.1
2017-08-01T14:39:32.835Z,8.4
2017-08-01T14:40:34.276Z,7.4
2017-08-01T14:41:35.730Z,7.2
2017-08-01T14:42:37.162Z,8.5
2017-08-01T14:43:38.596Z,9.0
2017-08-01T14:44:40.025Z,11.2
2017-08-01T14:45:41.458Z,12.8
2017-08-01T14:46:42.888Z,15.8
2017-08-01T14:47:44.319Z,17.7
2017-08-01T14:48:45.755Z,19.1
2017-08-01T14:49:47.223Z,22.2
2017-08-01T14:50:48.653Z,22.3
2017-08-01T14:51:50.085Z,22.2
2017-08-01T14:52:51.523Z,20.7
2017-08-01T14:53:52.960Z,19.2
2017-08-01T14:54:54.391Z,19.7
2017-08-01T14:55:55.824Z,19.9
2017-08-01T14:56:57.254Z,21.1
2017-08-01T14:57:58.679Z,21.7
2017-08-01T14:59:00.115Z,22.4
2017-08-01T15:00:01.539Z,22.6